Time;durP1;ratioP1;P1;durP2;ratioP2;P2;SDS_P1;SDS_P2;PMS_P1;PMS_P2;Temp;Humidity;BMP_temperature;BMP_pressure;BME280_temperature;BME280_humidity;BME280_pressure;Samples;Min_cycle;Max_cycle;Signal;HPM_P1;HPM_P2
2023/10/25 00:00:58;;;;;;;51.70;19.20;;;7.80;99.90;;;;;;4988325;28;20414;-76
2023/10/25 00:03:23;;;;;;;57.95;19.58;;;7.80;99.90;;;;;;4998171;28;20842;-78
2023/10/25 00:05:51;;;;;;;69.22;23.65;;;7.90;99.90;;;;;;4988299;28;20052;-76
2023/10/25 00:08:17;;;;;;;47.15;16.45;;;7.70;99.90;;;;;;4984701;28;20794;-77
2023/10/25 00:10:43;;;;;;;56.17;18.85;;;7.70;99.90;;;;;;4986733;28;20042;-77
2023/10/25 00:13:08;;;;;;;40.33;17.38;;;8.50;99.90;;;;;;5000537;28;20148;-73
2023/10/25 00:15:34;;;;;;;65.53;21.42;;;7.80;99.90;;;;;;5003576;28;20046;-76
2023/10/25 00:18:00;;;;;;;58.05;19.98;;;7.70;99.90;;;;;;4977238;28;20045;-78
2023/10/25 00:20:26;;;;;;;53.97;18.50;;;8.20;99.90;;;;;;5001078;28;20073;-78
2023/10/25 00:22:52;;;;;;;36.92;16.33;;;7.70;99.90;;;;;;4990598;28;20206;-73
2023/10/25 00:25:17;;;;;;;67.80;20.65;;;9.30;99.90;;;;;;4991732;28;20045;-73
2023/10/25 00:27:45;;;;;;;34.20;14.48;;;7.70;99.90;;;;;;4989041;28;20081;-78
2023/10/25 00:30:12;;;;;;;60.45;20.58;;;7.90;99.90;;;;;;4990334;28;20112;-76
2023/10/25 00:32:37;;;;;;;48.22;17.15;;;7.00;99.90;;;;;;4988304;28;20077;-75
2023/10/25 00:35:04;;;;;;;60.50;18.85;;;7.70;99.90;;;;;;4983865;28;20054;-77
2023/10/25 00:37:29;;;;;;;53.33;16.45;;;7.60;99.90;;;;;;4983929;28;20877;-75
2023/10/25 00:39:56;;;;;;;56.05;18.73;;;7.40;99.90;;;;;;4986673;28;20049;-77
2023/10/25 00:42:22;;;;;;;66.63;20.23;;;8.50;99.90;;;;;;4999250;28;20072;-77
2023/10/25 00:45:08;;;;;;;60.08;19.42;;;7.40;99.90;;;;;;4991918;28;20046;-76
2023/10/25 00:47:34;;;;;;;55.25;17.40;;;7.40;99.90;;;;;;4986932;28;20045;-77
2023/10/25 00:50:03;;;;;;;63.58;17.63;;;7.40;99.90;;;;;;4989285;28;20183;-79
2023/10/25 00:52:29;;;;;;;103.13;22.30;;;7.40;99.90;;;;;;4996872;23;20454;-74
2023/10/25 00:54:59;;;;;;;44.75;15.10;;;7.30;99.90;;;;;;4982331;28;20565;-78
2023/10/25 00:57:24;;;;;;;51.65;16.05;;;7.30;99.90;;;;;;4987652;28;20042;-74
2023/10/25 00:59:51;;;;;;;34.40;14.25;;;7.30;99.90;;;;;;4977684;28;20041;-76
2023/10/25 01:02:17;;;;;;;79.38;20.02;;;7.60;99.90;;;;;;4998862;23;20054;-77
2023/10/25 01:04:44;;;;;;;31.15;14.10;;;7.30;99.90;;;;;;4981324;28;20503;-77
2023/10/25 01:07:10;;;;;;;35.80;15.25;;;7.30;99.90;;;;;;4967688;28;20164;-75
2023/10/25 01:09:36;;;;;;;57.85;18.50;;;7.50;99.90;;;;;;4979006;28;20068;-79
2023/10/25 01:12:04;;;;;;;32.17;12.63;;;7.20;99.90;;;;;;4970195;28;20050;-77
2023/10/25 01:14:31;;;;;;;43.97;16.23;;;7.20;99.90;;;;;;4990834;23;20058;-74
2023/10/25 01:16:57;;;;;;;28.52;12.13;;;7.10;99.90;;;;;;5001711;28;20042;-76
2023/10/25 01:19:22;;;;;;;43.35;16.48;;;7.20;99.90;;;;;;4980766;23;20112;-75
2023/10/25 01:21:48;;;;;;;52.60;17.75;;;7.60;99.90;;;;;;4996088;28;20050;-75
2023/10/25 01:24:14;;;;;;;50.10;16.40;;;8.10;99.90;;;;;;4992431;28;20164;-79
2023/10/25 01:26:41;;;;;;;55.80;17.83;;;7.50;99.90;;;;;;4997047;28;20046;-78
2023/10/25 01:29:07;;;;;;;42.70;15.82;;;7.60;99.90;;;;;;4990920;28;20754;-77
2023/10/25 01:31:32;;;;;;;38.63;14.50;;;8.60;99.90;;;;;;4978901;23;20054;-74
2023/10/25 01:33:59;;;;;;;38.83;14.93;;;7.90;99.90;;;;;;4985471;28;20045;-72
2023/10/25 01:36:25;;;;;;;49.10;15.93;;;7.50;99.90;;;;;;4968826;28;20124;-74
2023/10/25 01:41:17;;;;;;;59.15;18.88;;;7.10;99.90;;;;;;4977809;23;20183;-80
2023/10/25 01:43:46;;;;;;;41.10;16.40;;;7.10;99.90;;;;;;4977747;28;20586;-77
2023/10/25 01:46:11;;;;;;;80.00;22.02;;;8.30;99.90;;;;;;4977765;28;20139;-76
2023/10/25 01:48:37;;;;;;;44.00;16.13;;;7.10;99.90;;;;;;4994556;28;20645;-75
2023/10/25 01:51:06;;;;;;;45.42;16.17;;;7.10;99.90;;;;;;4994251;28;20090;-76
2023/10/25 01:53:33;;;;;;;39.25;15.90;;;7.10;99.90;;;;;;4994264;28;20054;-76
2023/10/25 01:56:00;;;;;;;51.53;18.77;;;7.10;99.90;;;;;;4994708;28;20128;-77
2023/10/25 01:58:26;;;;;;;46.25;17.23;;;7.90;99.90;;;;;;4995480;28;20770;-74
2023/10/25 02:00:51;;;;;;;53.28;18.00;;;9.10;99.90;;;;;;4977793;28;20054;-73
2023/10/25 02:03:17;;;;;;;35.47;15.73;;;9.70;99.90;;;;;;4994646;28;20109;-76
2023/10/25 02:05:46;;;;;;;46.83;17.92;;;7.10;99.90;;;;;;4977350;28;20054;-76
2023/10/25 02:08:11;;;;;;;58.00;20.15;;;8.00;99.90;;;;;;4970893;23;20705;-79
2023/10/25 02:10:37;;;;;;;40.10;16.67;;;7.90;99.90;;;;;;4977234;28;20062;-77
2023/10/25 02:13:03;;;;;;;33.47;16.15;;;7.10;99.90;;;;;;4961000;28;20062;-75
2023/10/25 02:15:29;;;;;;;45.40;17.70;;;7.10;99.90;;;;;;4983338;23;20057;-77
2023/10/25 02:17:54;;;;;;;48.25;19.15;;;7.10;99.90;;;;;;4981420;28;20221;-73
2023/10/25 02:20:20;;;;;;;48.20;20.10;;;8.60;99.90;;;;;;4991712;28;20134;-74
2023/10/25 02:22:46;;;;;;;94.43;25.50;;;7.30;99.90;;;;;;4994476;28;20135;-78
2023/10/25 02:25:12;;;;;;;42.97;19.17;;;8.50;99.90;;;;;;5000922;23;20145;-75
2023/10/25 02:27:37;;;;;;;76.05;24.73;;;8.90;99.90;;;;;;4988069;23;20056;-74
2023/10/25 02:30:04;;;;;;;83.18;25.27;;;7.10;99.90;;;;;;4955765;23;20880;-73
2023/10/25 02:32:30;;;;;;;80.70;25.30;;;7.00;99.90;;;;;;4957941;23;20062;-76
2023/10/25 02:34:56;;;;;;;48.97;20.15;;;4.50;99.90;;;;;;4952859;28;20058;-78
2023/10/25 02:37:22;;;;;;;61.60;23.55;;;7.70;99.90;;;;;;4952245;28;20061;-74
2023/10/25 02:39:47;;;;;;;65.07;21.83;;;7.00;99.90;;;;;;4953912;28;20160;-76
2023/10/25 02:42:13;;;;;;;70.43;24.40;;;7.00;99.90;;;;;;4934288;28;20165;-76
2023/10/25 02:44:39;;;;;;;124.20;30.83;;;7.00;99.90;;;;;;4940519;28;20089;-78
2023/10/25 02:47:06;;;;;;;61.95;22.25;;;7.00;99.90;;;;;;4983557;23;20065;-79
2023/10/25 02:49:33;;;;;;;90.85;28.25;;;6.90;99.90;;;;;;4979322;28;20057;-76
2023/10/25 02:52:01;;;;;;;57.55;22.63;;;7.00;99.90;;;;;;4976191;28;20133;-74
2023/10/25 02:54:27;;;;;;;88.95;26.27;;;7.60;99.90;;;;;;4974292;23;20141;-77
2023/10/25 02:56:52;;;;;;;87.90;28.10;;;7.00;99.90;;;;;;4959233;28;20126;-76
2023/10/25 02:59:18;;;;;;;71.93;24.48;;;6.90;99.90;;;;;;4973348;23;20144;-76
2023/10/25 03:01:44;;;;;;;55.58;21.85;;;8.80;99.90;;;;;;5010442;23;20187;-80
2023/10/25 03:04:10;;;;;;;52.15;23.48;;;7.00;99.90;;;;;;4988370;23;20064;-79
2023/10/25 03:06:35;;;;;;;94.07;27.50;;;8.50;99.90;;;;;;4980007;23;20073;-76
2023/10/25 03:09:02;;;;;;;75.07;24.50;;;7.80;99.90;;;;;;4973504;28;20878;-79
2023/10/25 03:11:27;;;;;;;75.82;24.17;;;6.90;99.90;;;;;;4974204;28;20208;-78
2023/10/25 03:14:04;;;;;;;67.65;24.48;;;6.90;99.90;;;;;;4838209;23;4129335;-75
2023/10/25 03:16:32;;;;;;;59.60;22.08;;;6.90;99.90;;;;;;4975808;28;20065;-75
2023/10/25 03:18:58;;;;;;;63.63;22.65;;;7.60;99.90;;;;;;4958844;28;20475;-77
2023/10/25 03:21:24;;;;;;;49.17;21.10;;;6.80;99.90;;;;;;4962221;23;20065;-75
2023/10/25 03:23:50;;;;;;;92.55;26.45;;;8.30;99.90;;;;;;4998965;28;20137;-74
2023/10/25 03:26:18;;;;;;;66.20;22.52;;;6.80;99.90;;;;;;5002862;28;20065;-74
2023/10/25 03:28:44;;;;;;;49.40;22.23;;;6.80;99.90;;;;;;4996521;28;20073;-78
2023/10/25 03:31:10;;;;;;;47.67;19.63;;;7.00;99.90;;;;;;4984415;23;20061;-77
2023/10/25 03:33:36;;;;;;;42.13;19.60;;;6.80;99.90;;;;;;4986466;28;20054;-80
2023/10/25 03:36:02;;;;;;;42.88;19.58;;;7.10;99.90;;;;;;4988024;28;20486;-76
2023/10/25 03:38:28;;;;;;;60.63;23.60;;;6.80;99.90;;;;;;4995775;23;20061;-76
2023/10/25 03:41:05;;;;;;;53.67;20.67;;;6.80;99.90;;;;;;4980407;28;20212;-78
2023/10/25 03:43:32;;;;;;;54.45;21.65;;;6.80;99.90;;;;;;4964699;28;20483;-78
2023/10/25 03:46:05;;;;;;;48.85;21.77;;;6.80;99.90;;;;;;4964916;28;20105;-75
2023/10/25 03:48:32;;;;;;;72.50;25.08;;;7.20;99.90;;;;;;4979543;23;20061;-79
2023/10/25 03:50:58;;;;;;;50.17;22.05;;;6.80;99.90;;;;;;4993787;28;20061;-78
2023/10/25 03:53:24;;;;;;;71.78;24.92;;;6.80;99.90;;;;;;4987928;28;20052;-78
2023/10/25 03:55:57;;;;;;;70.45;25.02;;;7.70;99.90;;;;;;4991065;23;20519;-77
2023/10/25 03:58:23;;;;;;;70.30;24.55;;;6.80;99.90;;;;;;4997230;23;20153;-75
2023/10/25 04:01:06;;;;;;;81.07;26.75;;;6.80;99.90;;;;;;4972874;23;20065;-76
2023/10/25 04:03:32;;;;;;;61.83;24.02;;;6.70;99.90;;;;;;4994769;28;20133;-74
2023/10/25 04:05:58;;;;;;;64.53;24.05;;;8.00;99.90;;;;;;4982304;23;20885;-75
2023/10/25 04:08:24;;;;;;;83.57;26.23;;;6.80;99.90;;;;;;4960701;28;20880;-72
2023/10/25 04:10:55;;;;;;;54.22;22.58;;;6.80;99.90;;;;;;4966327;28;20046;-79
2023/10/25 04:13:24;;;;;;;66.85;24.95;;;6.70;99.90;;;;;;4967394;23;20068;-80
2023/10/25 04:16:01;;;;;;;57.13;22.05;;;6.90;99.90;;;;;;4982932;28;20053;-80
2023/10/25 04:18:28;;;;;;;76.78;25.80;;;8.60;99.90;;;;;;4996275;28;20060;-75
2023/10/25 04:20:56;;;;;;;41.28;19.85;;;6.80;99.90;;;;;;4991106;28;20086;-74
2023/10/25 04:23:22;;;;;;;54.53;23.75;;;6.70;99.90;;;;;;5003049;28;20096;-74
2023/10/25 04:25:48;;;;;;;99.75;29.00;;;6.70;99.90;;;;;;4996666;28;20053;-76
2023/10/25 04:28:14;;;;;;;59.55;24.58;;;6.70;99.90;;;;;;5000646;28;20170;-78
2023/10/25 04:30:40;;;;;;;56.60;22.55;;;7.60;99.90;;;;;;5017303;28;20071;-79
2023/10/25 04:33:07;;;;;;;66.72;23.92;;;9.30;99.90;;;;;;5001510;23;20505;-78
2023/10/25 04:35:33;;;;;;;76.47;25.42;;;6.60;99.90;;;;;;4967596;23;20137;-76
2023/10/25 04:37:58;;;;;;;82.18;26.00;;;6.70;99.90;;;;;;4943402;28;20145;-76
2023/10/25 04:40:25;;;;;;;54.03;22.75;;;6.60;99.90;;;;;;4943380;28;20074;-77
2023/10/25 04:42:50;;;;;;;57.03;22.88;;;6.60;99.90;;;;;;4951834;28;20050;-75
2023/10/25 04:45:17;;;;;;;52.00;20.98;;;6.60;99.90;;;;;;4931552;28;20056;-77
2023/10/25 04:47:42;;;;;;;54.33;21.85;;;6.60;99.90;;;;;;4944092;28;20058;-76
2023/10/25 04:50:09;;;;;;;92.07;28.02;;;6.80;99.90;;;;;;4953487;23;20457;-76
2023/10/25 04:52:35;;;;;;;56.35;23.50;;;6.60;99.90;;;;;;4969006;28;20060;-76
2023/10/25 04:55:01;;;;;;;45.25;21.38;;;6.60;99.90;;;;;;4959540;28;20657;-79
2023/10/25 04:57:26;;;;;;;68.60;24.60;;;6.60;99.90;;;;;;4963204;23;20077;-75
2023/10/25 05:02:33;;;;;;;48.30;21.42;;;6.60;99.90;;;;;;5014483;23;20115;-77
2023/10/25 05:04:59;;;;;;;45.90;21.85;;;7.10;99.90;;;;;;5005611;28;20530;-79
2023/10/25 05:07:25;;;;;;;64.63;22.73;;;7.60;99.90;;;;;;5012609;23;20072;-78
2023/10/25 05:09:51;;;;;;;68.97;22.85;;;6.50;99.90;;;;;;4998352;28;20054;-78
2023/10/25 05:12:24;;;;;;;57.85;21.95;;;6.50;99.90;;;;;;5017072;28;20037;-78
2023/10/25 05:14:50;;;;;;;51.10;20.88;;;6.50;99.90;;;;;;4997075;28;20053;-80
2023/10/25 05:17:16;;;;;;;61.42;22.23;;;6.50;99.90;;;;;;5010398;28;20465;-75
2023/10/25 05:19:45;;;;;;;67.55;24.17;;;6.50;99.90;;;;;;5011199;28;20061;-77
2023/10/25 05:22:13;;;;;;;67.07;22.42;;;6.50;99.90;;;;;;5020871;28;20049;-76
2023/10/25 05:24:41;;;;;;;69.32;22.42;;;6.80;99.90;;;;;;5016923;28;20100;-76
2023/10/25 05:27:08;;;;;;;81.07;26.52;;;6.50;99.90;;;;;;4991862;28;20136;-76
2023/10/25 05:29:34;;;;;;;42.85;19.52;;;6.50;99.90;;;;;;5016199;28;20049;-80
2023/10/25 05:32:04;;;;;;;54.15;20.80;;;6.50;99.90;;;;;;5013605;28;20749;-79
2023/10/25 05:34:30;;;;;;;47.40;21.42;;;6.40;99.90;;;;;;4993840;28;20045;-77
2023/10/25 05:36:56;;;;;;;47.92;20.15;;;6.50;99.90;;;;;;4996548;28;20169;-74
2023/10/25 05:39:22;;;;;;;62.13;21.20;;;6.40;99.90;;;;;;5014679;28;20057;-75
2023/10/25 05:41:50;;;;;;;39.10;18.65;;;6.40;99.90;;;;;;5016890;28;20045;-78
2023/10/25 05:44:16;;;;;;;55.97;21.70;;;6.90;99.90;;;;;;5001365;23;20046;-74
2023/10/25 05:46:42;;;;;;;46.22;19.60;;;6.40;99.90;;;;;;4975827;28;20050;-76
2023/10/25 05:49:08;;;;;;;50.15;20.13;;;6.40;99.90;;;;;;4986317;23;20168;-77
2023/10/25 05:51:35;;;;;;;65.28;22.98;;;6.40;99.90;;;;;;4980947;28;20058;-76
2023/10/25 05:54:04;;;;;;;50.88;20.50;;;6.40;99.90;;;;;;5014252;28;20065;-76
2023/10/25 05:56:30;;;;;;;46.15;18.30;;;6.40;99.90;;;;;;5013554;28;20056;-77
2023/10/25 05:58:56;;;;;;;66.13;22.38;;;6.40;99.90;;;;;;5016306;28;20061;-78
2023/10/25 06:01:48;;;;;;;64.75;23.42;;;6.40;99.90;;;;;;4999621;28;20499;-79
2023/10/25 06:04:15;;;;;;;75.72;24.35;;;6.40;99.90;;;;;;4972529;28;20513;-80
2023/10/25 06:06:45;;;;;;;54.40;22.75;;;6.40;99.90;;;;;;4997347;28;20774;-76
2023/10/25 06:09:13;;;;;;;46.70;21.42;;;7.20;99.90;;;;;;4980011;28;20056;-78
2023/10/25 06:11:39;;;;;;;44.85;21.95;;;6.40;99.90;;;;;;4995707;28;20096;-75
2023/10/25 06:14:06;;;;;;;53.97;22.88;;;6.40;99.90;;;;;;4996206;28;20560;-79
2023/10/25 06:16:32;;;;;;;58.28;24.02;;;6.40;99.90;;;;;;4997006;28;20138;-78
2023/10/25 06:18:58;;;;;;;60.28;24.20;;;6.40;99.90;;;;;;5003193;23;20061;-79
2023/10/25 06:21:24;;;;;;;59.25;25.02;;;6.40;99.90;;;;;;5002336;23;20057;-80
2023/10/25 06:23:53;;;;;;;57.20;23.75;;;6.90;99.90;;;;;;4973133;23;20062;-79
2023/10/25 06:26:21;;;;;;;64.50;25.58;;;6.80;99.90;;;;;;4949232;28;20165;-79
2023/10/25 06:28:47;;;;;;;61.17;26.00;;;7.30;99.90;;;;;;4982938;23;20054;-80
2023/10/25 06:31:16;;;;;;;49.17;22.02;;;6.40;99.90;;;;;;4954400;23;20050;-80
2023/10/25 06:33:42;;;;;;;58.38;23.38;;;6.40;99.90;;;;;;4975403;23;20499;-76
2023/10/25 06:36:11;;;;;;;53.33;23.38;;;6.70;99.90;;;;;;4984554;28;20066;-78
2023/10/25 06:38:37;;;;;;;66.95;26.10;;;6.40;99.90;;;;;;4966854;28;20054;-78
2023/10/25 06:41:03;;;;;;;65.32;25.63;;;6.40;99.90;;;;;;4966817;28;20053;-78
2023/10/25 06:43:32;;;;;;;59.75;23.92;;;6.40;99.90;;;;;;4989156;28;20459;-78
2023/10/25 06:46:01;;;;;;;69.95;25.90;;;6.40;99.90;;;;;;4973072;28;20050;-76
2023/10/25 06:48:29;;;;;;;73.75;25.52;;;6.40;99.90;;;;;;4983930;28;20049;-76
2023/10/25 06:50:56;;;;;;;71.28;26.48;;;6.50;99.90;;;;;;4982442;28;20103;-76
2023/10/25 06:53:22;;;;;;;41.53;22.10;;;6.50;99.90;;;;;;4978818;28;20517;-79
2023/10/25 06:55:48;;;;;;;69.97;25.65;;;6.50;99.90;;;;;;4973583;28;20096;-77
2023/10/25 06:58:14;;;;;;;62.22;25.83;;;6.50;99.90;;;;;;4952284;28;20062;-79
2023/10/25 07:00:40;;;;;;;90.72;31.08;;;6.50;99.90;;;;;;4965253;28;20435;-78
2023/10/25 07:03:10;;;;;;;66.15;25.98;;;6.50;99.90;;;;;;4946710;28;20046;-78
2023/10/25 07:05:36;;;;;;;54.95;23.40;;;6.40;99.90;;;;;;4943207;28;20053;-80
2023/10/25 07:08:03;;;;;;;53.08;22.80;;;6.50;99.90;;;;;;4962864;28;20058;-77
2023/10/25 07:10:29;;;;;;;59.38;24.35;;;6.50;99.90;;;;;;4958155;28;20805;-75
2023/10/25 07:12:55;;;;;;;74.25;28.02;;;6.50;99.90;;;;;;4959143;28;20125;-78
2023/10/25 07:15:24;;;;;;;49.42;23.23;;;6.80;99.90;;;;;;4964357;28;20045;-77
2023/10/25 07:17:50;;;;;;;59.60;24.27;;;4.10;99.90;;;;;;4960549;28;20061;-80
2023/10/25 07:20:15;;;;;;;67.70;27.02;;;6.60;99.90;;;;;;4968494;28;20050;-75
2023/10/25 07:22:42;;;;;;;90.28;31.10;;;7.20;99.90;;;;;;4963425;28;20046;-79
2023/10/25 07:25:08;;;;;;;46.75;23.17;;;6.70;99.90;;;;;;4959591;28;20102;-77
2023/10/25 07:27:34;;;;;;;56.40;23.98;;;6.70;99.90;;;;;;4955357;28;20046;-79
2023/10/25 07:30:00;;;;;;;76.13;27.65;;;6.70;99.90;;;;;;4963137;28;20057;-76
2023/10/25 07:32:26;;;;;;;60.60;26.40;;;6.80;99.90;;;;;;4968907;28;20108;-79
2023/10/25 07:34:52;;;;;;;69.80;28.20;;;7.50;99.90;;;;;;4970983;28;20502;-78
2023/10/25 07:39:43;;;;;;;45.45;23.45;;;6.90;99.90;;;;;;5013405;23;20097;-79
2023/10/25 07:42:09;;;;;;;69.22;27.88;;;6.90;99.90;;;;;;5015555;23;20077;-80
2023/10/25 07:44:35;;;;;;;83.95;31.40;;;6.90;99.90;;;;;;4978484;28;20054;-79
2023/10/25 07:47:01;;;;;;;52.10;24.27;;;7.10;99.90;;;;;;4973321;28;20144;-79
2023/10/25 07:49:27;;;;;;;49.80;24.70;;;7.00;99.90;;;;;;4986883;23;21800;-77
2023/10/25 07:52:20;;;;;;;52.92;26.13;;;7.10;99.90;;;;;;4956365;28;20061;-78
2023/10/25 07:54:46;;;;;;;;;;;7.10;99.90;;;;;;4948584;28;20058;-77
2023/10/25 07:57:28;;;;;;;49.03;24.65;;;7.20;99.90;;;;;;4942829;28;19926;-79
2023/10/25 07:59:54;;;;;;;51.42;25.70;;;7.20;99.90;;;;;;4976388;28;20045;-77
2023/10/25 08:02:20;;;;;;;75.60;32.88;;;7.30;99.90;;;;;;4979330;28;20365;-79
2023/10/25 08:04:46;;;;;;;132.43;38.83;;;7.40;99.90;;;;;;4983429;28;20054;-79
2023/10/25 08:07:12;;;;;;;57.75;28.33;;;7.50;99.90;;;;;;4989553;28;20044;-80
2023/10/25 08:09:42;;;;;;;91.03;34.35;;;8.00;99.90;;;;;;4978619;28;20042;-75
2023/10/25 08:12:09;;;;;;;60.85;30.10;;;7.90;99.90;;;;;;4950028;28;20944;-77
2023/10/25 08:14:35;;;;;;;85.18;34.95;;;7.70;99.90;;;;;;4998746;23;20105;-76
2023/10/25 08:17:02;;;;;;;58.35;30.35;;;7.70;99.90;;;;;;4936918;28;20043;-77
2023/10/25 08:19:28;;;;;;;54.53;28.10;;;7.80;99.90;;;;;;4973413;28;20070;-77
2023/10/25 08:21:57;;;;;;;60.65;31.27;;;7.90;99.90;;;;;;4983104;23;20062;-75
2023/10/25 08:24:23;;;;;;;69.38;32.47;;;7.90;99.90;;;;;;4979803;28;20050;-78
2023/10/25 08:26:51;;;;;;;57.25;30.65;;;8.30;99.90;;;;;;4978488;28;20058;-78
2023/10/25 08:29:17;;;;;;;88.30;36.80;;;8.00;99.90;;;;;;4979655;28;20093;-77
2023/10/25 08:31:46;;;;;;;103.15;41.22;;;8.10;99.90;;;;;;4978159;28;20068;-75
2023/10/25 08:34:12;;;;;;;51.45;29.67;;;8.40;99.90;;;;;;4977161;28;20054;-75
2023/10/25 08:36:39;;;;;;;75.25;32.88;;;8.20;99.90;;;;;;4961650;28;20046;-78
2023/10/25 08:39:07;;;;;;;44.05;26.05;;;8.60;99.90;;;;;;4971889;28;20057;-75
2023/10/25 08:41:35;;;;;;;54.92;28.30;;;8.30;99.90;;;;;;4975983;28;20046;-75
2023/10/25 08:44:03;;;;;;;45.70;26.05;;;8.40;99.90;;;;;;4980167;28;20148;-75
2023/10/25 08:46:31;;;;;;;49.88;27.65;;;8.40;99.90;;;;;;4962825;23;20062;-78
2023/10/25 08:48:57;;;;;;;54.58;29.30;;;8.40;99.90;;;;;;4953036;28;20061;-75
2023/10/25 08:51:24;;;;;;;47.15;26.50;;;8.40;99.90;;;;;;4972479;28;20165;-76
2023/10/25 08:53:55;;;;;;;72.90;32.78;;;8.50;99.90;;;;;;4958462;28;20487;-77
2023/10/25 08:56:21;;;;;;;63.03;32.45;;;9.00;99.90;;;;;;4982083;23;20057;-78
2023/10/25 08:59:26;;;;;;;51.67;28.25;;;8.50;99.90;;;;;;4975437;23;20062;-77
2023/10/25 09:01:52;;;;;;;49.42;28.38;;;8.60;99.90;;;;;;4988695;23;20074;-74
2023/10/25 09:04:20;;;;;;;37.75;26.05;;;9.50;99.90;;;;;;4976835;28;20521;-75
2023/10/25 09:06:45;;;;;;;59.63;31.42;;;8.70;99.90;;;;;;4985052;23;20112;-75
2023/10/25 09:09:14;;;;;;;49.03;27.77;;;8.80;99.90;;;;;;4978294;23;20247;-77
2023/10/25 09:11:41;;;;;;;67.93;32.03;;;8.70;99.90;;;;;;4983239;23;20601;-78
2023/10/25 09:14:07;;;;;;;54.72;30.08;;;8.90;99.90;;;;;;4935183;28;20085;-76
2023/10/25 09:16:34;;;;;;;50.85;28.85;;;9.30;99.90;;;;;;4939795;28;20066;-77
2023/10/25 09:19:03;;;;;;;39.47;24.13;;;9.00;99.90;;;;;;4941985;28;20078;-74
2023/10/25 09:21:32;;;;;;;47.05;24.48;;;9.10;99.90;;;;;;4939784;28;20050;-75
2023/10/25 09:24:07;;;;;;;49.22;26.65;;;9.10;99.90;;;;;;4943215;28;20046;-76
2023/10/25 09:26:39;;;;;;;47.30;24.83;;;9.20;99.90;;;;;;4943980;28;20053;-78
2023/10/25 09:29:05;;;;;;;34.65;22.27;;;9.20;99.90;;;;;;4941976;28;20047;-73
2023/10/25 09:31:31;;;;;;;43.72;24.58;;;9.20;99.90;;;;;;4954124;23;20393;-76
2023/10/25 09:33:58;;;;;;;36.45;23.88;;;9.30;99.90;;;;;;4982447;28;20054;-75
2023/10/25 09:36:26;;;;;;;42.22;27.58;;;9.40;99.90;;;;;;4965411;28;20047;-74
2023/10/25 09:38:53;;;;;;;41.17;24.55;;;9.60;99.90;;;;;;4950050;28;20058;-76
2023/10/25 09:41:19;;;;;;;32.65;22.70;;;9.70;99.90;;;;;;4970108;23;20093;-76
2023/10/25 09:43:49;;;;;;;38.83;24.58;;;9.90;99.90;;;;;;5003232;28;20050;-79
2023/10/25 09:46:21;;;;;;;39.35;23.67;;;10.00;99.90;;;;;;5006168;28;20045;-81
2023/10/25 09:49:02;;;;;;;40.83;23.77;;;10.10;99.90;;;;;;4968078;28;20061;-74
2023/10/25 09:51:40;;;;;;;29.48;18.40;;;10.20;99.90;;;;;;4990276;28;20083;-77
2023/10/25 09:54:13;;;;;;;41.33;21.85;;;10.40;99.90;;;;;;4980343;28;20096;-77
2023/10/25 09:59:10;;;;;;;22.17;14.18;;;10.60;99.90;;;;;;4994106;23;20340;-76
2023/10/25 10:01:40;;;;;;;28.70;14.18;;;10.60;99.90;;;;;;4979855;23;20074;-75
2023/10/25 10:04:28;;;;;;;23.23;15.00;;;10.70;99.90;;;;;;4934494;28;20122;-77
2023/10/25 10:07:21;;;;;;;25.20;17.33;;;10.80;99.90;;;;;;4963959;23;20058;-77
2023/10/25 10:10:10;;;;;;;23.98;15.13;;;10.90;99.90;;;;;;4957514;28;20066;-75
2023/10/25 10:12:37;;;;;;;20.38;13.82;;;11.00;99.90;;;;;;4943072;28;20047;-78
2023/10/25 10:15:03;;;;;;;18.52;11.35;;;11.10;99.90;;;;;;4941722;28;20051;-77
2023/10/25 10:17:36;;;;;;;17.95;10.20;;;11.10;99.90;;;;;;4948411;28;20049;-73
2023/10/25 10:20:05;;;;;;;18.45;11.00;;;11.10;99.90;;;;;;4948235;28;20077;-74
2023/10/25 10:22:31;;;;;;;14.32;11.50;;;11.10;99.90;;;;;;4938987;28;20109;-78
2023/10/25 10:24:58;;;;;;;13.40;11.38;;;11.10;99.90;;;;;;4948896;28;20054;-77
2023/10/25 10:27:54;;;;;;;18.10;11.48;;;11.10;99.90;;;;;;4951652;28;20050;-73
2023/10/25 10:30:42;;;;;;;18.15;12.23;;;11.10;99.90;;;;;;4954164;28;20110;-77
2023/10/25 10:33:10;;;;;;;18.45;10.07;;;11.10;99.90;;;;;;4954497;28;20046;-73
2023/10/25 10:35:44;;;;;;;14.82;9.95;;;11.10;99.90;;;;;;4954857;28;20071;-75
2023/10/25 10:38:10;;;;;;;13.20;8.70;;;11.00;99.90;;;;;;4962523;28;20058;-77
2023/10/25 10:40:36;;;;;;;14.82;8.18;;;11.00;99.90;;;;;;4949634;28;20132;-75
2023/10/25 10:43:06;;;;;;;14.48;9.30;;;10.90;99.90;;;;;;4948443;28;20046;-76
2023/10/25 10:45:32;;;;;;;14.23;9.75;;;10.80;99.90;;;;;;4964672;28;20462;-74
2023/10/25 10:48:20;;;;;;;15.23;8.93;;;10.80;99.90;;;;;;4961024;28;20053;-77
2023/10/25 10:50:47;;;;;;;15.57;9.30;;;10.70;99.90;;;;;;4964234;28;20068;-73
2023/10/25 10:53:13;;;;;;;18.13;10.35;;;10.70;99.90;;;;;;4950690;28;20155;-76
2023/10/25 10:55:40;;;;;;;20.17;10.25;;;10.70;99.90;;;;;;4960083;28;20132;-75
2023/10/25 10:58:07;;;;;;;15.43;9.23;;;10.70;99.90;;;;;;4930511;28;20058;-77
2023/10/25 11:00:33;;;;;;;17.88;9.73;;;10.80;99.90;;;;;;4965520;28;20046;-76
2023/10/25 11:03:04;;;;;;;15.77;10.60;;;10.80;99.90;;;;;;4970734;28;20066;-73
2023/10/25 11:05:33;;;;;;;18.13;10.60;;;10.90;99.90;;;;;;4949969;28;20050;-74
2023/10/25 11:07:59;;;;;;;14.43;8.00;;;10.90;99.90;;;;;;4947317;28;20143;-73
2023/10/25 11:10:25;;;;;;;10.70;8.05;;;11.00;99.90;;;;;;4935414;28;20050;-74
2023/10/25 11:12:50;;;;;;;12.77;9.15;;;11.00;99.90;;;;;;4942014;28;20255;-73
2023/10/25 11:15:24;;;;;;;10.57;7.13;;;11.00;99.90;;;;;;4926937;28;20063;-78
2023/10/25 11:17:49;;;;;;;14.73;7.82;;;11.10;99.90;;;;;;4957361;28;20039;-78
2023/10/25 11:20:15;;;;;;;11.98;7.00;;;11.10;99.90;;;;;;4989457;23;20134;-73
2023/10/25 11:22:42;;;;;;;12.80;7.18;;;8.30;99.90;;;;;;4986874;23;20058;-78
2023/10/25 11:25:11;;;;;;;16.17;7.68;;;11.10;99.90;;;;;;4963906;28;20061;-76
2023/10/25 11:27:38;;;;;;;14.90;7.93;;;11.20;99.90;;;;;;4980342;28;20111;-78
2023/10/25 11:30:05;;;;;;;12.73;7.40;;;11.20;99.90;;;;;;4977403;28;20169;-73
2023/10/25 11:32:34;;;;;;;8.95;6.70;;;11.30;99.90;;;;;;4972361;28;20133;-79
2023/10/25 11:35:04;;;;;;;14.65;7.30;;;11.30;99.90;;;;;;4966641;28;20077;-78
2023/10/25 11:37:43;;;;;;;13.02;6.55;;;11.30;99.90;;;;;;4986380;28;20057;-75
2023/10/25 11:40:12;;;;;;;10.18;6.40;;;11.30;99.90;;;;;;4958571;28;20385;-70
2023/10/25 11:42:38;;;;;;;12.13;6.45;;;11.30;99.90;;;;;;4964698;28;20049;-78
2023/10/25 11:45:05;;;;;;;11.05;6.00;;;11.30;99.90;;;;;;4983554;28;20046;-75
2023/10/25 11:47:34;;;;;;;8.80;5.18;;;11.30;99.90;;;;;;4979967;28;20498;-72
2023/10/25 11:50:03;;;;;;;9.32;4.65;;;11.30;99.90;;;;;;4975853;28;20058;-79
2023/10/25 11:52:30;;;;;;;12.50;6.43;;;11.30;99.90;;;;;;4965526;28;20046;-73
2023/10/25 11:54:58;;;;;;;12.35;5.78;;;11.30;99.90;;;;;;4983001;28;20050;-76
2023/10/25 11:57:29;;;;;;;9.48;6.50;;;11.30;99.90;;;;;;4990628;28;20456;-75
2023/10/25 12:00:03;;;;;;;10.00;5.55;;;11.30;99.90;;;;;;4988677;23;20093;-79
2023/10/25 12:02:38;;;;;;;12.90;7.03;;;12.10;99.90;;;;;;4920356;29;20102;-73
2023/10/25 12:05:04;;;;;;;9.20;4.93;;;11.20;99.90;;;;;;4928961;28;20047;-76
2023/10/25 12:07:31;;;;;;;12.35;4.75;;;11.20;99.90;;;;;;4926172;29;20050;-74
2023/10/25 12:09:58;;;;;;;10.10;4.13;;;11.20;99.90;;;;;;4970072;28;20531;-76
2023/10/25 12:12:24;;;;;;;8.93;4.63;;;11.10;99.90;;;;;;4948169;28;20526;-76
2023/10/25 12:14:51;;;;;;;9.35;4.68;;;11.10;99.90;;;;;;4925135;29;20059;-76
2023/10/25 12:17:17;;;;;;;9.02;4.72;;;11.10;99.90;;;;;;4936435;28;20059;-72
2023/10/25 12:19:44;;;;;;;11.00;4.38;;;11.10;99.90;;;;;;4928814;29;20058;-72
2023/10/25 12:22:14;;;;;;;10.50;4.00;;;11.00;99.90;;;;;;4935773;28;20118;-72
2023/10/25 12:24:42;;;;;;;7.38;4.20;;;11.00;99.90;;;;;;4935835;29;20059;-78
2023/10/25 12:27:11;;;;;;;7.82;4.80;;;11.00;99.90;;;;;;4925237;28;20692;-75
2023/10/25 12:29:39;;;;;;;8.52;5.10;;;11.00;99.90;;;;;;4925024;29;20050;-70
2023/10/25 12:32:08;;;;;;;11.75;4.72;;;11.00;99.90;;;;;;4942047;29;20890;-73
2023/10/25 12:34:33;;;;;;;10.45;5.70;;;11.00;99.90;;;;;;4926165;29;20540;-73
2023/10/25 12:36:59;;;;;;;12.27;4.97;;;11.00;99.90;;;;;;4947803;28;20055;-76
2023/10/25 12:39:26;;;;;;;15.25;5.95;;;11.00;99.90;;;;;;4925163;29;20137;-74
2023/10/25 12:41:52;;;;;;;10.63;5.50;;;11.00;99.90;;;;;;4926152;29;20059;-74
2023/10/25 12:44:18;;;;;;;12.57;4.50;;;11.00;99.90;;;;;;4946212;28;20606;-73
2023/10/25 12:46:44;;;;;;;14.60;5.38;;;10.90;99.90;;;;;;4937878;29;20059;-74
2023/10/25 12:49:11;;;;;;;11.82;5.80;;;10.90;99.90;;;;;;4923747;29;20586;-75